Time;durP1;ratioP1;P1;durP2;ratioP2;P2;SDS_P1;SDS_P2;PMS_P1;PMS_P2;Temp;Humidity;BMP_temperature;BMP_pressure;BME280_temperature;BME280_humidity;BME280_pressure;Samples;Min_cycle;Max_cycle;Signal;HPM_P1;HPM_P2
2021/05/09 00:26:58;;;;;;;6.70;2.87;;;;;;;;;;4617417;28;20481;-68
2021/05/09 00:29:24;;;;;;;10.70;3.10;;;;;;;;;;4149241;34;20198;-69
2021/05/09 00:31:50;;;;;;;9.90;2.75;;;;;;;;;;4145183;34;20216;-68
2021/05/09 00:34:15;;;;;;;3.47;2.40;;;;;;;;;;4136346;34;20657;-68
2021/05/09 00:36:41;;;;;;;5.30;2.62;;;;;;;;;;4136160;34;20488;-68
2021/05/09 00:39:07;;;;;;;7.18;3.42;;;;;;;;;;4136504;34;20221;-68
2021/05/09 00:41:33;;;;;;;7.47;2.87;;;;;;;;;;4136106;34;20210;-68
2021/05/09 00:43:59;;;;;;;6.07;2.55;;;;;;;;;;4136072;34;20124;-68
2021/05/09 00:46:25;;;;;;;7.20;3.10;;;;;;;;;;4136053;34;20460;-68
2021/05/09 00:48:51;;;;;;;7.12;3.25;;;;;;;;;;4136065;34;20156;-68
2021/05/09 00:51:17;;;;;;;5.47;2.50;;;;;;;;;;4135963;34;20548;-69
2021/05/09 00:53:43;;;;;;;6.47;2.58;;;;;;;;;;4134764;34;20549;-69
2021/05/09 00:56:13;;;;;;;7.50;2.75;;;;;;;;;;4135100;34;20150;-68
2021/05/09 00:58:43;;;;;;;12.68;2.80;;;;;;;;;;4136026;34;20123;-67
2021/05/09 01:01:10;;;;;;;4.55;2.90;;;;;;;;;;4135852;34;20130;-68
2021/05/09 01:03:36;;;;;;;7.65;4.22;;;;;;;;;;4135950;34;20206;-68
2021/05/09 01:06:02;;;;;;;4.18;2.80;;;;;;;;;;4123656;34;20131;-68
2021/05/09 01:08:29;;;;;;;5.07;2.50;;;;;;;;;;4136642;34;20491;-68
2021/05/09 01:10:55;;;;;;;5.62;2.70;;;;;;;;;;4138196;34;20185;-68
2021/05/09 01:13:21;;;;;;;7.15;2.83;;;;;;;;;;4138259;34;20422;-68
2021/05/09 01:15:47;;;;;;;6.95;2.65;;;;;;;;;;4138052;34;20204;-68
2021/05/09 01:18:13;;;;;;;4.62;2.97;;;;;;;;;;4137893;34;20534;-68
2021/05/09 01:20:39;;;;;;;8.98;3.00;;;;;;;;;;4138033;34;20123;-68
2021/05/09 01:23:05;;;;;;;6.05;2.65;;;;;;;;;;4137798;34;20139;-68
2021/05/09 01:25:32;;;;;;;6.37;3.10;;;;;;;;;;4138151;34;20107;-68
2021/05/09 01:27:58;;;;;;;6.82;2.97;;;;;;;;;;4130495;34;20100;-68
2021/05/09 01:30:24;;;;;;;9.30;2.80;;;;;;;;;;4151037;34;20130;-68
2021/05/09 01:32:50;;;;;;;4.80;3.17;;;;;;;;;;4149754;34;20523;-68
2021/05/09 01:35:16;;;;;;;4.75;2.67;;;;;;;;;;4138672;34;20095;-68
2021/05/09 01:37:42;;;;;;;6.30;3.20;;;;;;;;;;4151255;34;20123;-68
2021/05/09 01:40:08;;;;;;;6.80;3.30;;;;;;;;;;4151548;34;20218;-69
2021/05/09 01:42:34;;;;;;;9.50;3.22;;;;;;;;;;4151198;34;20134;-69
2021/05/09 01:45:00;;;;;;;4.93;2.80;;;;;;;;;;4151256;34;20126;-69
2021/05/09 01:47:26;;;;;;;5.68;2.60;;;;;;;;;;4151044;34;20135;-69
2021/05/09 01:49:52;;;;;;;5.32;3.00;;;;;;;;;;4127808;34;20147;-68
2021/05/09 01:52:19;;;;;;;8.25;3.08;;;;;;;;;;4138516;34;20150;-69
2021/05/09 01:54:45;;;;;;;7.30;3.08;;;;;;;;;;4138617;34;20127;-69
2021/05/09 01:57:11;;;;;;;8.48;2.90;;;;;;;;;;4138714;34;20216;-69
2021/05/09 01:59:37;;;;;;;3.00;2.60;;;;;;;;;;4127493;34;20531;-69
2021/05/09 02:02:03;;;;;;;7.47;2.70;;;;;;;;;;4145727;34;20228;-69
2021/05/09 02:04:29;;;;;;;3.40;2.30;;;;;;;;;;4125159;34;20131;-69
2021/05/09 02:06:55;;;;;;;4.18;3.03;;;;;;;;;;4137618;34;20124;-69
2021/05/09 02:09:20;;;;;;;4.65;2.97;;;;;;;;;;4124660;34;20201;-69
2021/05/09 02:11:46;;;;;;;5.40;2.58;;;;;;;;;;4137533;34;20596;-69
2021/05/09 02:14:12;;;;;;;6.90;2.72;;;;;;;;;;4137453;34;20612;-69
2021/05/09 02:16:38;;;;;;;6.78;2.40;;;;;;;;;;4137426;34;20543;-69
2021/05/09 02:19:04;;;;;;;5.90;2.90;;;;;;;;;;4136580;34;20227;-69
2021/05/09 02:21:32;;;;;;;7.70;2.85;;;;;;;;;;4137652;34;20131;-68
2021/05/09 02:23:58;;;;;;;3.83;2.85;;;;;;;;;;4137757;34;20123;-69
2021/05/09 02:26:24;;;;;;;6.97;3.05;;;;;;;;;;4124806;34;20108;-69
2021/05/09 02:28:50;;;;;;;3.33;2.83;;;;;;;;;;4147444;34;20500;-69
2021/05/09 02:31:15;;;;;;;4.93;2.50;;;;;;;;;;4151014;34;20525;-68
2021/05/09 02:33:41;;;;;;;10.38;2.95;;;;;;;;;;4150814;34;20126;-69
2021/05/09 02:36:07;;;;;;;5.20;2.15;;;;;;;;;;4150715;34;20532;-70
2021/05/09 02:38:33;;;;;;;6.28;2.65;;;;;;;;;;4150632;34;20517;-69
2021/05/09 02:40:59;;;;;;;5.87;2.87;;;;;;;;;;4150676;34;20139;-69
2021/05/09 02:43:25;;;;;;;5.35;2.65;;;;;;;;;;4150681;34;20142;-69
2021/05/09 02:45:51;;;;;;;4.60;2.60;;;;;;;;;;4150748;34;20149;-69
2021/05/09 02:48:16;;;;;;;4.50;2.45;;;;;;;;;;4138267;34;20126;-69
2021/05/09 02:50:42;;;;;;;7.47;2.60;;;;;;;;;;4150667;34;20230;-69
2021/05/09 02:53:08;;;;;;;5.35;2.62;;;;;;;;;;4150632;34;20232;-69
2021/05/09 02:55:34;;;;;;;9.88;2.65;;;;;;;;;;4150647;34;20167;-69
2021/05/09 02:58:00;;;;;;;8.27;2.90;;;;;;;;;;4150677;34;20137;-69
2021/05/09 03:00:26;;;;;;;7.97;2.80;;;;;;;;;;4150871;34;20130;-68
2021/05/09 03:02:52;;;;;;;3.85;2.60;;;;;;;;;;4149168;34;20131;-69
2021/05/09 03:05:18;;;;;;;4.03;2.62;;;;;;;;;;4150544;34;20091;-69
2021/05/09 03:07:44;;;;;;;4.55;2.50;;;;;;;;;;4150411;34;20136;-68
2021/05/09 03:10:10;;;;;;;5.25;2.55;;;;;;;;;;4150708;34;20134;-69
2021/05/09 03:12:36;;;;;;;6.95;2.83;;;;;;;;;;4150353;34;20467;-68
2021/05/09 03:15:02;;;;;;;8.93;2.60;;;;;;;;;;4137853;34;20146;-69
2021/05/09 03:17:28;;;;;;;9.07;2.40;;;;;;;;;;4150271;34;20207;-69
2021/05/09 03:19:54;;;;;;;5.72;3.00;;;;;;;;;;4150769;34;20142;-69
2021/05/09 03:22:20;;;;;;;4.43;2.47;;;;;;;;;;4150390;34;20468;-69
2021/05/09 03:24:45;;;;;;;3.85;2.62;;;;;;;;;;4150361;34;20555;-68
2021/05/09 03:27:11;;;;;;;5.55;2.70;;;;;;;;;;4150218;34;20605;-69
2021/05/09 03:29:37;;;;;;;4.15;2.40;;;;;;;;;;4149954;34;20135;-68
2021/05/09 03:32:03;;;;;;;3.95;2.53;;;;;;;;;;4150434;34;20441;-68
2021/05/09 03:34:29;;;;;;;13.62;2.80;;;;;;;;;;4138037;34;20230;-69
2021/05/09 03:36:55;;;;;;;4.55;2.70;;;;;;;;;;4150197;34;20571;-69
2021/05/09 03:39:21;;;;;;;5.28;2.90;;;;;;;;;;4150397;34;20489;-69
2021/05/09 03:41:47;;;;;;;8.82;3.47;;;;;;;;;;4150148;34;20153;-69
2021/05/09 03:44:13;;;;;;;6.65;2.45;;;;;;;;;;4150123;34;20119;-69
2021/05/09 03:46:39;;;;;;;5.70;2.30;;;;;;;;;;4137682;34;20592;-69
2021/05/09 03:49:05;;;;;;;4.10;2.33;;;;;;;;;;4137563;34;20134;-69
2021/05/09 03:51:30;;;;;;;5.45;2.22;;;;;;;;;;4150269;34;20456;-68
2021/05/09 03:53:56;;;;;;;8.77;2.37;;;;;;;;;;4150029;34;20147;-68
2021/05/09 03:56:22;;;;;;;2.92;2.30;;;;;;;;;;4137744;34;20338;-68
2021/05/09 03:58:48;;;;;;;6.32;2.55;;;;;;;;;;4150108;34;20221;-68
2021/05/09 04:01:14;;;;;;;4.55;2.55;;;;;;;;;;4149946;34;20138;-68
2021/05/09 04:03:40;;;;;;;10.07;3.37;;;;;;;;;;4150086;34;20143;-68
2021/05/09 04:06:06;;;;;;;9.20;3.55;;;;;;;;;;4149973;34;20150;-68
2021/05/09 04:08:32;;;;;;;6.80;2.60;;;;;;;;;;4137620;34;20467;-68
2021/05/09 04:10:59;;;;;;;6.28;3.03;;;;;;;;;;4149849;34;20201;-67
2021/05/09 04:13:25;;;;;;;14.20;3.50;;;;;;;;;;4149845;34;20107;-68
2021/05/09 04:15:51;;;;;;;6.97;3.22;;;;;;;;;;4149779;34;20146;-69
2021/05/09 04:18:17;;;;;;;7.10;2.50;;;;;;;;;;4150039;34;20123;-69
2021/05/09 04:20:43;;;;;;;6.20;2.17;;;;;;;;;;4149917;34;20129;-69
2021/05/09 04:23:13;;;;;;;4.87;2.20;;;;;;;;;;4150096;34;20096;-69
2021/05/09 04:25:40;;;;;;;8.35;2.22;;;;;;;;;;4149925;34;20113;-70
2021/05/09 04:28:06;;;;;;;4.43;2.00;;;;;;;;;;4149461;34;20476;-69
2021/05/09 04:30:33;;;;;;;5.28;2.25;;;;;;;;;;4149988;34;20146;-69
2021/05/09 04:33:02;;;;;;;6.07;2.30;;;;;;;;;;4137249;34;20111;-69
2021/05/09 04:35:28;;;;;;;4.12;2.20;;;;;;;;;;4149592;34;20115;-69
2021/05/09 04:37:55;;;;;;;3.87;2.53;;;;;;;;;;4149675;34;20503;-68
2021/05/09 04:40:21;;;;;;;4.97;2.47;;;;;;;;;;4149965;34;20189;-68
2021/05/09 04:42:47;;;;;;;3.05;2.10;;;;;;;;;;4151215;34;20107;-69
2021/05/09 04:45:13;;;;;;;3.70;2.60;;;;;;;;;;4151885;34;20139;-68
2021/05/09 04:47:40;;;;;;;6.65;2.42;;;;;;;;;;4151408;34;20119;-69
2021/05/09 04:50:06;;;;;;;4.50;2.20;;;;;;;;;;4142008;34;20095;-68
2021/05/09 04:52:32;;;;;;;7.65;2.37;;;;;;;;;;4125110;34;20159;-69
2021/05/09 04:54:58;;;;;;;7.45;2.10;;;;;;;;;;4136002;34;20146;-68
2021/05/09 04:57:24;;;;;;;4.05;2.00;;;;;;;;;;4136834;34;20108;-68
2021/05/09 04:59:50;;;;;;;4.18;2.40;;;;;;;;;;4138175;34;20174;-69
2021/05/09 05:02:16;;;;;;;4.15;2.33;;;;;;;;;;4138037;34;20130;-69
2021/05/09 05:04:43;;;;;;;4.45;2.10;;;;;;;;;;4125823;34;20207;-69
2021/05/09 05:07:09;;;;;;;5.37;2.37;;;;;;;;;;4138195;34;20111;-68
2021/05/09 05:09:35;;;;;;;5.90;2.15;;;;;;;;;;4138389;34;20095;-69
2021/05/09 05:12:00;;;;;;;6.32;2.45;;;;;;;;;;4138139;34;20127;-69
2021/05/09 05:14:26;;;;;;;2.92;2.03;;;;;;;;;;4138023;34;20115;-69
2021/05/09 05:16:52;;;;;;;2.78;2.10;;;;;;;;;;4137981;34;20120;-69
2021/05/09 05:19:18;;;;;;;2.80;1.98;;;;;;;;;;4137980;34;20135;-69
2021/05/09 05:21:47;;;;;;;10.05;2.33;;;;;;;;;;4137998;34;20126;-69
2021/05/09 05:24:16;;;;;;;10.07;2.53;;;;;;;;;;4137831;34;20231;-69
2021/05/09 05:26:42;;;;;;;7.35;3.08;;;;;;;;;;4137870;34;20135;-69
2021/05/09 05:29:08;;;;;;;2.53;2.10;;;;;;;;;;4137853;34;20565;-69
2021/05/09 05:31:33;;;;;;;2.80;2.10;;;;;;;;;;4137912;34;20136;-69
2021/05/09 05:34:02;;;;;;;5.05;2.45;;;;;;;;;;4138141;34;20131;-69
2021/05/09 05:36:31;;;;;;;4.95;3.28;;;;;;;;;;4137887;34;20457;-69
2021/05/09 05:38:58;;;;;;;8.32;2.20;;;;;;;;;;4137763;34;20452;-69
2021/05/09 05:41:24;;;;;;;5.10;2.22;;;;;;;;;;4137678;34;20128;-69
2021/05/09 05:43:50;;;;;;;2.17;1.90;;;;;;;;;;4137789;34;20127;-69
2021/05/09 05:46:16;;;;;;;7.95;2.22;;;;;;;;;;4137752;34;20130;-69
2021/05/09 05:48:42;;;;;;;4.90;2.40;;;;;;;;;;4137635;34;20131;-69
2021/05/09 05:51:07;;;;;;;4.78;2.20;;;;;;;;;;4145498;34;20559;-69
2021/05/09 05:53:33;;;;;;;5.40;2.55;;;;;;;;;;4151076;34;20103;-69
2021/05/09 05:55:59;;;;;;;3.42;2.00;;;;;;;;;;4151002;34;20483;-69
2021/05/09 05:58:25;;;;;;;5.00;2.50;;;;;;;;;;4151048;34;20122;-69
2021/05/09 06:00:51;;;;;;;7.53;2.62;;;;;;;;;;4151055;34;20142;-68
2021/05/09 06:03:17;;;;;;;1.62;1.45;;;;;;;;;;4151138;34;20135;-69
2021/05/09 06:05:46;;;;;;;12.35;4.12;;;;;;;;;;4151107;34;20130;-69
2021/05/09 06:08:12;;;;;;;2.22;2.00;;;;;;;;;;4150937;34;20538;-69
2021/05/09 06:10:39;;;;;;;5.28;3.12;;;;;;;;;;4151049;34;20130;-69
2021/05/09 06:13:04;;;;;;;3.30;2.47;;;;;;;;;;4138479;34;20137;-69
2021/05/09 06:15:31;;;;;;;4.87;3.00;;;;;;;;;;4151026;34;20552;-68
2021/05/09 06:17:57;;;;;;;6.57;3.08;;;;;;;;;;4138411;34;20130;-69
2021/05/09 06:20:23;;;;;;;5.62;2.60;;;;;;;;;;4151202;34;20479;-69
2021/05/09 06:22:49;;;;;;;5.93;2.90;;;;;;;;;;4150921;34;20200;-69
2021/05/09 06:25:15;;;;;;;7.25;3.00;;;;;;;;;;4142960;34;20511;-69
2021/05/09 06:27:41;;;;;;;3.92;3.05;;;;;;;;;;4137227;34;20127;-68
2021/05/09 06:30:07;;;;;;;7.43;2.60;;;;;;;;;;4137340;34;20123;-69
2021/05/09 06:32:33;;;;;;;5.00;2.58;;;;;;;;;;4124856;34;20464;-69
2021/05/09 06:34:59;;;;;;;11.07;2.53;;;;;;;;;;4135921;34;20217;-68
2021/05/09 06:37:26;;;;;;;4.15;2.40;;;;;;;;;;4137253;34;20233;-69
2021/05/09 06:39:53;;;;;;;17.15;3.90;;;;;;;;;;4137288;34;20276;-69
2021/05/09 06:42:18;;;;;;;9.40;2.20;;;;;;;;;;4137246;34;20111;-69
2021/05/09 06:44:52;;;;;;;4.90;2.28;;;;;;;;;;4137174;34;20131;-69
2021/05/09 06:47:18;;;;;;;8.23;2.50;;;;;;;;;;4137206;34;20544;-69
2021/05/09 06:49:44;;;;;;;4.65;2.17;;;;;;;;;;4124745;34;20146;-69
2021/05/09 06:52:10;;;;;;;7.40;3.12;;;;;;;;;;4148702;34;20210;-68
2021/05/09 06:54:36;;;;;;;3.00;1.95;;;;;;;;;;4138106;34;20119;-69
2021/05/09 06:57:03;;;;;;;3.15;2.17;;;;;;;;;;4137966;34;20150;-69
2021/05/09 06:59:30;;;;;;;6.85;2.22;;;;;;;;;;4150665;34;20210;-69
2021/05/09 07:01:56;;;;;;;6.18;2.58;;;;;;;;;;4150551;34;20224;-69
2021/05/09 07:04:22;;;;;;;8.90;4.65;;;;;;;;;;4149926;34;20103;-69
2021/05/09 07:06:48;;;;;;;5.95;4.03;;;;;;;;;;4150405;34;20126;-69
2021/05/09 07:09:14;;;;;;;4.97;2.62;;;;;;;;;;4150558;34;20131;-69
2021/05/09 07:11:40;;;;;;;8.68;2.92;;;;;;;;;;4150544;34;20130;-69
2021/05/09 07:14:06;;;;;;;13.55;2.80;;;;;;;;;;4150673;34;20127;-69
2021/05/09 07:16:32;;;;;;;6.37;3.03;;;;;;;;;;4150356;34;20574;-69
2021/05/09 07:19:00;;;;;;;9.48;2.60;;;;;;;;;;4150374;34;20119;-69
2021/05/09 07:21:29;;;;;;;4.78;2.72;;;;;;;;;;4150410;34;20123;-69
2021/05/09 07:23:55;;;;;;;4.22;2.40;;;;;;;;;;4150343;34;20212;-69
2021/05/09 07:26:21;;;;;;;5.55;1.90;;;;;;;;;;4150284;34;20542;-69
2021/05/09 07:28:47;;;;;;;1.83;1.48;;;;;;;;;;4150374;34;20146;-69
2021/05/09 07:31:15;;;;;;;8.40;2.67;;;;;;;;;;4137721;34;20133;-69
2021/05/09 07:33:41;;;;;;;11.85;3.00;;;;;;;;;;4137883;34;20115;-69
2021/05/09 07:36:07;;;;;;;5.80;2.72;;;;;;;;;;4150085;34;20138;-70
2021/05/09 07:38:33;;;;;;;7.32;2.60;;;;;;;;;;4137997;34;20198;-69
2021/05/09 07:40:59;;;;;;;7.03;2.97;;;;;;;;;;4137586;34;20480;-69
2021/05/09 07:43:25;;;;;;;10.13;2.90;;;;;;;;;;4137692;34;20128;-69
2021/05/09 07:45:51;;;;;;;6.30;3.00;;;;;;;;;;4137589;34;20126;-68
2021/05/09 07:48:17;;;;;;;3.05;2.50;;;;;;;;;;4150083;34;20110;-68
2021/05/09 07:50:43;;;;;;;6.93;2.30;;;;;;;;;;4150063;34;20123;-68
2021/05/09 07:53:09;;;;;;;4.43;2.80;;;;;;;;;;4149994;34;20095;-69
2021/05/09 07:55:35;;;;;;;5.95;2.72;;;;;;;;;;4150335;34;20198;-69
2021/05/09 07:58:20;;;;;;;11.65;2.65;;;;;;;;;;4150242;34;20190;-69
2021/05/09 08:00:46;;;;;;;2.45;2.20;;;;;;;;;;4139395;34;20118;-69
2021/05/09 08:03:12;;;;;;;9.60;2.60;;;;;;;;;;4150043;34;20107;-69
2021/05/09 08:05:38;;;;;;;4.05;2.80;;;;;;;;;;4150047;34;20424;-69
2021/05/09 08:08:04;;;;;;;15.35;3.08;;;;;;;;;;4137301;34;20215;-68
2021/05/09 08:10:36;;;;;;;3.65;2.37;;;;;;;;;;4149988;34;20108;-69
2021/05/09 08:13:05;;;;;;;11.30;2.80;;;;;;;;;;4150002;34;20119;-69
2021/05/09 08:15:32;;;;;;;6.53;2.45;;;;;;;;;;4150622;34;20123;-69
2021/05/09 08:17:58;;;;;;;8.15;2.67;;;;;;;;;;4139317;34;20118;-69
2021/05/09 08:20:24;;;;;;;4.57;3.20;;;;;;;;;;4151975;34;20467;-68
2021/05/09 08:22:50;;;;;;;7.62;2.92;;;;;;;;;;4151827;34;20146;-69
2021/05/09 08:25:16;;;;;;;3.78;2.87;;;;;;;;;;4151810;34;20146;-69
2021/05/09 08:27:46;;;;;;;6.90;3.33;;;;;;;;;;4150220;34;20115;-69
2021/05/09 08:30:13;;;;;;;5.35;2.40;;;;;;;;;;4151893;34;20308;-69
2021/05/09 08:32:39;;;;;;;5.18;2.53;;;;;;;;;;4151750;34;20463;-69
2021/05/09 08:35:07;;;;;;;2.40;1.95;;;;;;;;;;4151842;34;20123;-69
2021/05/09 08:37:33;;;;;;;9.75;3.85;;;;;;;;;;4152057;34;20146;-69
2021/05/09 08:39:59;;;;;;;9.75;3.50;;;;;;;;;;4152046;34;20119;-69
2021/05/09 08:42:25;;;;;;;4.20;2.70;;;;;;;;;;4151707;34;20300;-69
2021/05/09 08:44:53;;;;;;;7.00;2.87;;;;;;;;;;4151777;34;20135;-69
2021/05/09 08:47:22;;;;;;;10.63;2.65;;;;;;;;;;4152016;34;20501;-69
2021/05/09 08:49:49;;;;;;;3.33;2.17;;;;;;;;;;4151723;34;20111;-69
2021/05/09 08:52:19;;;;;;;2.12;1.92;;;;;;;;;;4151575;34;20236;-69
2021/05/09 08:54:45;;;;;;;2.35;2.15;;;;;;;;;;4139140;34;20440;-69
2021/05/09 08:57:11;;;;;;;6.93;2.75;;;;;;;;;;4151563;34;20103;-69
2021/05/09 08:59:37;;;;;;;4.40;2.53;;;;;;;;;;4151633;34;20114;-69
2021/05/09 09:02:03;;;;;;;5.20;2.28;;;;;;;;;;4151493;34;20558;-68
2021/05/09 09:04:45;;;;;;;3.25;2.22;;;;;;;;;;4128304;34;20528;-70
2021/05/09 09:07:12;;;;;;;5.05;2.60;;;;;;;;;;4145157;34;20539;-72
2021/05/09 09:09:42;;;;;;;9.13;3.28;;;;;;;;;;4128913;34;20100;-68
2021/05/09 09:12:09;;;;;;;4.32;2.50;;;;;;;;;;4118164;34;20214;-71
2021/05/09 09:14:35;;;;;;;10.30;3.33;;;;;;;;;;4138283;34;20150;-70
2021/05/09 09:17:13;;;;;;;9.48;2.45;;;;;;;;;;4137641;34;20127;-71
2021/05/09 09:20:15;;;;;;;8.13;2.65;;;;;;;;;;4137993;34;20251;-71
2021/05/09 09:22:54;;;;;;;4.28;2.97;;;;;;;;;;4136340;34;20103;-71
2021/05/09 09:25:28;;;;;;;8.00;3.50;;;;;;;;;;4137716;34;20210;-70
2021/05/09 09:27:54;;;;;;;6.00;3.35;;;;;;;;;;4132632;34;20477;-70
2021/05/09 09:30:22;;;;;;;4.68;2.58;;;;;;;;;;4124506;34;20124;-71
2021/05/09 09:33:08;;;;;;;6.87;2.78;;;;;;;;;;4111771;34;20147;-70
2021/05/09 09:35:34;;;;;;;11.15;2.80;;;;;;;;;;4124269;34;20100;-70
2021/05/09 09:38:01;;;;;;;5.35;2.85;;;;;;;;;;4100968;34;20236;-70
2021/05/09 09:40:27;;;;;;;8.98;2.72;;;;;;;;;;4101597;34;20182;-70
2021/05/09 09:42:54;;;;;;;5.12;2.45;;;;;;;;;;4124389;34;20116;-70
2021/05/09 09:45:25;;;;;;;7.32;2.58;;;;;;;;;;4124094;34;20182;-70
2021/05/09 09:48:02;;;;;;;5.40;2.53;;;;;;;;;;4112078;34;20468;-70
2021/05/09 09:50:41;;;;;;;4.28;3.45;;;;;;;;;;4127195;34;20533;-68
2021/05/09 09:53:26;;;;;;;3.90;2.47;;;;;;;;;;4151451;34;20235;-67
2021/05/09 09:56:05;;;;;;;3.80;2.08;;;;;;;;;;4151554;34;20126;-71
2021/05/09 09:59:02;;;;;;;3.75;1.50;;;;;;;;;;4138687;34;20095;-70
2021/05/09 10:01:36;;;;;;;2.17;1.40;;;;;;;;;;4151130;34;20113;-71
2021/05/09 10:04:07;;;;;;;1.00;1.00;;;;;;;;;;4151150;34;20210;-69
2021/05/09 10:06:33;;;;;;;2.05;1.48;;;;;;;;;;4138633;34;20125;-66
2021/05/09 10:09:00;;;;;;;2.62;1.70;;;;;;;;;;4138608;34;20197;-67
2021/05/09 10:11:29;;;;;;;1.25;1.10;;;;;;;;;;4151052;34;20559;-67
2021/05/09 10:13:55;;;;;;;3.12;1.48;;;;;;;;;;4151120;34;20117;-70
2021/05/09 10:16:22;;;;;;;1.40;1.30;;;;;;;;;;4150098;34;20114;-70
2021/05/09 10:18:51;;;;;;;5.47;1.37;;;;;;;;;;4150885;34;20138;-70
2021/05/09 10:21:17;;;;;;;1.48;1.37;;;;;;;;;;4150784;34;20108;-70
2021/05/09 10:24:07;;;;;;;1.55;1.45;;;;;;;;;;4138463;34;20118;-70
2021/05/09 10:26:46;;;;;;;2.78;1.40;;;;;;;;;;4150686;34;20210;-70
2021/05/09 10:29:41;;;;;;;1.45;1.35;;;;;;;;;;4138737;34;20118;-70
2021/05/09 10:32:19;;;;;;;1.67;1.57;;;;;;;;;;4150993;34;20440;-70
2021/05/09 10:37:36;;;;;;;2.20;1.70;;;;;;;;;;4151058;34;20198;-71
2021/05/09 10:40:17;;;;;;;1.87;1.67;;;;;;;;;;4150079;34;20125;-70
2021/05/09 10:42:43;;;;;;;2.75;1.60;;;;;;;;;;4150878;34;20655;-71
2021/05/09 10:45:09;;;;;;;2.12;1.23;;;;;;;;;;4150973;34;20163;-70
2021/05/09 10:47:35;;;;;;;1.00;1.00;;;;;;;;;;4150620;34;20111;-71
2021/05/09 10:50:14;;;;;;;3.33;2.05;;;;;;;;;;4138412;34;20456;-70
2021/05/09 10:52:45;;;;;;;1.50;1.40;;;;;;;;;;4150637;34;20111;-70
2021/05/09 10:55:36;;;;;;;1.00;1.00;;;;;;;;;;4138061;34;20134;-70
2021/05/09 10:58:05;;;;;;;1.83;1.55;;;;;;;;;;4150471;34;20511;-68
2021/05/09 11:00:56;;;;;;;1.55;1.45;;;;;;;;;;4150297;34;20122;-70
2021/05/09 11:03:34;;;;;;;3.83;1.73;;;;;;;;;;4150604;34;20746;-71
2021/05/09 11:06:04;;;;;;;6.10;2.33;;;;;;;;;;4150447;34;20506;-70
2021/05/09 11:08:53;;;;;;;4.07;2.55;;;;;;;;;;4150661;34;20131;-71
2021/05/09 11:11:22;;;;;;;2.10;1.75;;;;;;;;;;4137826;34;20103;-72
2021/05/09 11:16:23;;;;;;;;;;;;;;;;;;4151018;34;20166;-70
2021/05/09 11:19:13;;;;;;;5.97;2.08;;;;;;;;;;4150389;34;19967;-71
2021/05/09 11:21:46;;;;;;;0.70;0.70;;;;;;;;;;4150490;34;20119;-67
2021/05/09 11:24:19;;;;;;;14.82;3.37;;;;;;;;;;4150349;34;20099;-71
2021/05/09 11:26:49;;;;;;;5.53;2.30;;;;;;;;;;4150326;34;20116;-69
2021/05/09 11:29:19;;;;;;;0.98;0.98;;;;;;;;;;4137669;34;20153;-70
2021/05/09 11:31:49;;;;;;;6.03;3.15;;;;;;;;;;4150458;34;20117;-71
2021/05/09 11:34:16;;;;;;;4.28;2.45;;;;;;;;;;4137761;34;20211;-69
2021/05/09 11:36:43;;;;;;;2.50;1.75;;;;;;;;;;4150278;34;20122;-69
2021/05/09 11:39:13;;;;;;;1.58;1.48;;;;;;;;;;4137656;34;20209;-67
2021/05/09 11:41:51;;;;;;;2.10;1.92;;;;;;;;;;4150232;34;20107;-68
2021/05/09 11:44:18;;;;;;;3.72;2.40;;;;;;;;;;4150141;34;20675;-67
2021/05/09 11:46:44;;;;;;;4.93;2.50;;;;;;;;;;4150274;34;20123;-67
2021/05/09 11:49:32;;;;;;;2.58;1.92;;;;;;;;;;4137469;34;20145;-69
2021/05/09 11:52:04;;;;;;;1.52;1.33;;;;;;;;;;4149719;34;20194;-69
2021/05/09 11:54:32;;;;;;;8.23;4.57;;;;;;;;;;4150049;34;20119;-67
2021/05/09 11:57:00;;;;;;;2.78;2.17;;;;;;;;;;4150139;34;20103;-66
2021/05/09 11:59:43;;;;;;;4.60;2.53;;;;;;;;;;4149964;34;20554;-67
2021/05/09 12:02:12;;;;;;;1.35;1.25;;;;;;;;;;4137701;34;20220;-66
2021/05/09 12:04:39;;;;;;;1.23;1.10;;;;;;;;;;4150009;34;20147;-69
2021/05/09 12:07:07;;;;;;;3.70;2.50;;;;;;;;;;4137143;34;20239;-68
2021/05/09 12:09:33;;;;;;;1.92;1.70;;;;;;;;;;4150203;34;20210;-64
2021/05/09 12:11:59;;;;;;;3.53;2.47;;;;;;;;;;4137556;34;20115;-65
2021/05/09 12:14:25;;;;;;;1.70;1.60;;;;;;;;;;4149945;34;20106;-66
2021/05/09 12:17:19;;;;;;;2.75;2.50;;;;;;;;;;4121276;34;20197;-71
2021/05/09 12:19:50;;;;;;;2.55;2.15;;;;;;;;;;4122156;34;20108;-68
2021/05/09 12:22:18;;;;;;;1.48;1.37;;;;;;;;;;4136240;34;20119;-68
2021/05/09 12:24:52;;;;;;;5.20;2.50;;;;;;;;;;4136445;34;20182;-68
2021/05/09 12:27:18;;;;;;;4.43;3.58;;;;;;;;;;4136070;34;20138;-69
2021/05/09 12:29:48;;;;;;;4.87;3.28;;;;;;;;;;4117180;34;20223;-67
2021/05/09 12:32:29;;;;;;;4.12;2.75;;;;;;;;;;4116401;34;20110;-68
2021/05/09 12:35:11;;;;;;;1.15;1.12;;;;;;;;;;4129117;34;20205;-65
2021/05/09 12:37:49;;;;;;;6.55;2.87;;;;;;;;;;4134116;34;20536;-66
2021/05/09 12:40:23;;;;;;;2.05;1.77;;;;;;;;;;4136586;34;20123;-69
2021/05/09 12:42:49;;;;;;;8.02;3.00;;;;;;;;;;4135995;34;20104;-68
2021/05/09 12:45:16;;;;;;;7.35;4.55;;;;;;;;;;4136077;34;20139;-69
2021/05/09 12:47:42;;;;;;;11.60;5.15;;;;;;;;;;4135973;34;20158;-69
2021/05/09 12:50:08;;;;;;;4.30;2.70;;;;;;;;;;4123358;34;20127;-68
2021/05/09 12:52:46;;;;;;;4.47;2.75;;;;;;;;;;4136029;34;20537;-68
2021/05/09 12:55:25;;;;;;;7.78;2.60;;;;;;;;;;4122632;34;20120;-67
2021/05/09 12:58:06;;;;;;;4.28;2.53;;;;;;;;;;4110267;34;20224;-68
2021/05/09 13:00:32;;;;;;;4.95;2.95;;;;;;;;;;4110451;34;20118;-70
2021/05/09 13:02:59;;;;;;;5.80;3.35;;;;;;;;;;4123916;34;20108;-71
2021/05/09 13:05:25;;;;;;;5.45;3.62;;;;;;;;;;4132956;34;20539;-68
2021/05/09 13:07:53;;;;;;;7.20;3.60;;;;;;;;;;4136827;34;20138;-67
2021/05/09 13:10:23;;;;;;;11.63;4.82;;;;;;;;;;4125412;34;20139;-69
2021/05/09 13:12:57;;;;;;;7.60;4.50;;;;;;;;;;4138020;34;20146;-69
2021/05/09 13:15:24;;;;;;;11.70;6.43;;;;;;;;;;4124193;34;20127;-68
2021/05/09 13:17:52;;;;;;;10.73;4.18;;;;;;;;;;4136340;34;20147;-68
2021/05/09 13:20:18;;;;;;;4.87;2.95;;;;;;;;;;4138043;34;20460;-66
2021/05/09 13:22:45;;;;;;;6.50;3.58;;;;;;;;;;4125411;34;20126;-67
2021/05/09 13:25:12;;;;;;;8.00;3.65;;;;;;;;;;4138014;34;20207;-68
2021/05/09 13:27:41;;;;;;;7.72;3.00;;;;;;;;;;4137051;34;20500;-69
2021/05/09 13:30:08;;;;;;;4.32;3.05;;;;;;;;;;4137593;34;20208;-68
2021/05/09 13:32:34;;;;;;;7.37;3.78;;;;;;;;;;4137826;34;20134;-68
2021/05/09 13:35:04;;;;;;;11.73;4.87;;;;;;;;;;4137958;34;20208;-68
2021/05/09 13:37:30;;;;;;;7.05;4.30;;;;;;;;;;4136156;34;20457;-67
2021/05/09 13:39:57;;;;;;;6.37;3.67;;;;;;;;;;4124093;34;20132;-69
2021/05/09 13:42:23;;;;;;;8.13;4.32;;;;;;;;;;4125150;34;20112;-69
2021/05/09 13:44:49;;;;;;;4.78;3.47;;;;;;;;;;4137723;34;20135;-70
2021/05/09 13:47:16;;;;;;;10.77;3.97;;;;;;;;;;4137601;34;20578;-69
2021/05/09 13:49:44;;;;;;;8.48;4.15;;;;;;;;;;4137860;34;20199;-68
2021/05/09 13:52:11;;;;;;;8.32;3.83;;;;;;;;;;4137918;34;20126;-67
2021/05/09 13:54:37;;;;;;;8.30;3.85;;;;;;;;;;4137705;34;20183;-66
2021/05/09 13:57:03;;;;;;;8.18;3.87;;;;;;;;;;4137678;34;20135;-67
2021/05/09 13:59:29;;;;;;;13.73;5.68;;;;;;;;;;4137600;34;20118;-67
2021/05/09 14:01:55;;;;;;;8.32;5.03;;;;;;;;;;4137612;34;20451;-69
2021/05/09 14:04:21;;;;;;;10.40;4.65;;;;;;;;;;4137796;34;20230;-70
2021/05/09 14:06:47;;;;;;;7.32;4.45;;;;;;;;;;4137884;34;20115;-69
2021/05/09 14:09:13;;;;;;;7.10;4.53;;;;;;;;;;4125202;34;20230;-70
2021/05/09 14:11:39;;;;;;;10.88;4.95;;;;;;;;;;4137536;34;20134;-70
2021/05/09 14:14:05;;;;;;;9.68;4.97;;;;;;;;;;4137486;34;20240;-69
2021/05/09 14:16:31;;;;;;;8.50;3.92;;;;;;;;;;4137745;34;20139;-68
2021/05/09 14:18:58;;;;;;;7.05;4.00;;;;;;;;;;4137469;34;20618;-69
2021/05/09 14:21:24;;;;;;;5.62;4.20;;;;;;;;;;4137411;34;20100;-69
2021/05/09 14:23:50;;;;;;;4.95;3.30;;;;;;;;;;4125258;34;20096;-69
2021/05/09 14:26:16;;;;;;;2.97;1.50;;;;;;;;;;4137486;34;20147;-69
2021/05/09 14:28:42;;;;;;;3.40;2.22;;;;;;;;;;4124870;34;20556;-69
2021/05/09 14:31:07;;;;;;;8.90;3.80;;;;;;;;;;4137234;34;20476;-71
2021/05/09 14:33:39;;;;;;;5.35;2.58;;;;;;;;;;4137526;34;20108;-72
2021/05/09 14:36:14;;;;;;;5.07;3.12;;;;;;;;;;4137660;34;20187;-69
2021/05/09 14:38:41;;;;;;;13.55;4.22;;;;;;;;;;4124969;34;20471;-70
2021/05/09 14:41:07;;;;;;;12.52;4.90;;;;;;;;;;4137552;34;20143;-70
2021/05/09 14:43:33;;;;;;;9.10;5.15;;;;;;;;;;4138346;34;20620;-70
2021/05/09 14:45:59;;;;;;;10.98;5.57;;;;;;;;;;4150706;34;20616;-70
2021/05/09 14:48:25;;;;;;;5.85;3.75;;;;;;;;;;4150601;34;20140;-69
2021/05/09 14:50:51;;;;;;;6.12;4.47;;;;;;;;;;4138028;34;20550;-69
2021/05/09 14:53:17;;;;;;;4.20;3.08;;;;;;;;;;4150648;34;20131;-69
2021/05/09 14:55:43;;;;;;;6.68;3.90;;;;;;;;;;4138112;34;20621;-70
2021/05/09 14:58:09;;;;;;;7.85;4.15;;;;;;;;;;4138085;34;20126;-69
2021/05/09 15:00:35;;;;;;;7.35;3.78;;;;;;;;;;4150619;34;20115;-69
2021/05/09 15:03:01;;;;;;;10.93;4.43;;;;;;;;;;4137980;34;20108;-69
2021/05/09 15:05:27;;;;;;;11.85;4.12;;;;;;;;;;4150553;34;20230;-69
2021/05/09 15:08:06;;;;;;;5.32;3.42;;;;;;;;;;4138322;34;20114;-71
2021/05/09 15:10:32;;;;;;;6.20;4.15;;;;;;;;;;4150786;34;20126;-70
2021/05/09 15:12:58;;;;;;;6.78;3.47;;;;;;;;;;4146875;34;20645;-71
2021/05/09 15:15:24;;;;;;;6.87;3.28;;;;;;;;;;4136918;34;20127;-70
2021/05/09 15:17:50;;;;;;;10.40;3.53;;;;;;;;;;4136887;34;20108;-69
2021/05/09 15:20:16;;;;;;;5.80;3.28;;;;;;;;;;4136810;34;20116;-70